Time;durP1;ratioP1;P1;durP2;ratioP2;P2;SDS_P1;SDS_P2;PMS_P1;PMS_P2;Temp;Humidity;BMP_temperature;BMP_pressure;BME280_temperature;BME280_humidity;BME280_pressure;Samples;Min_cycle;Max_cycle;Signal;HPM_P1;HPM_P2
2023/05/29 00:01:32;;;;;;;5.80;2.67;;;17.60;55.20;;;17.05;44.63;101091.31;5010018;28;20061;-79
2023/05/29 00:03:59;;;;;;;7.50;3.00;;;17.50;55.50;;;17.05;44.63;101087.78;5011466;28;20045;-79
2023/05/29 00:06:26;;;;;;;6.40;3.35;;;17.60;55.70;;;17.05;44.74;101094.00;5007990;28;20081;-79
2023/05/29 00:08:54;;;;;;;5.93;3.03;;;17.60;55.60;;;17.02;45.08;101090.94;5010102;28;20056;-79
2023/05/29 00:11:21;;;;;;;7.25;2.85;;;17.60;56.10;;;17.00;44.84;101088.50;5009485;28;20046;-78
2023/05/29 00:13:48;;;;;;;6.97;3.00;;;17.50;56.00;;;16.99;45.07;101087.69;4995242;28;20137;-79
2023/05/29 00:16:17;;;;;;;9.75;3.50;;;17.50;56.10;;;16.99;45.18;101085.00;5010918;28;20049;-78
2023/05/29 00:18:46;;;;;;;5.93;2.85;;;17.50;56.20;;;16.99;45.32;101084.19;5008870;28;20042;-79
2023/05/29 00:21:14;;;;;;;8.43;2.95;;;17.50;56.40;;;16.97;45.53;101097.06;5010662;28;20461;-79
2023/05/29 00:23:41;;;;;;;6.53;2.78;;;17.40;55.90;;;16.95;45.90;101096.50;4992530;28;20495;-79
2023/05/29 00:26:09;;;;;;;9.50;2.80;;;17.40;56.50;;;16.93;45.86;101109.38;5012102;28;20091;-79
2023/05/29 00:28:39;;;;;;;7.30;3.00;;;17.40;56.50;;;16.89;46.06;101110.91;5009112;28;20529;-79
2023/05/29 00:31:06;;;;;;;6.45;2.67;;;17.40;56.80;;;16.86;46.50;101112.19;4997882;28;20124;-79
2023/05/29 00:33:33;;;;;;;7.95;3.35;;;17.40;57.30;;;16.82;46.58;101099.44;5007472;28;20498;-79
2023/05/29 00:36:02;;;;;;;8.40;3.28;;;17.30;57.60;;;16.77;46.79;101104.72;5008498;28;20054;-79
2023/05/29 00:38:29;;;;;;;5.55;3.00;;;17.20;57.80;;;16.72;47.16;101100.84;5008549;28;20130;-78
2023/05/29 00:40:58;;;;;;;7.47;3.25;;;17.20;58.20;;;16.67;47.28;101108.78;5000825;28;20533;-79
2023/05/29 00:43:27;;;;;;;9.38;3.03;;;17.20;58.50;;;16.62;47.49;101116.75;5005498;28;20050;-79
2023/05/29 00:45:54;;;;;;;9.32;3.28;;;17.10;58.90;;;16.57;47.60;101113.13;4994377;28;20120;-79
2023/05/29 00:48:21;;;;;;;7.82;3.38;;;17.10;59.10;;;16.54;47.88;101121.66;5005439;28;20044;-79
2023/05/29 00:50:49;;;;;;;7.18;3.30;;;17.00;59.30;;;16.50;47.80;101125.91;5007456;28;20131;-78
2023/05/29 00:53:20;;;;;;;6.45;2.80;;;17.00;59.20;;;16.46;48.16;101137.13;5008979;28;20052;-78
2023/05/29 00:55:47;;;;;;;10.23;3.40;;;16.90;59.70;;;16.40;48.36;101135.38;5009430;28;20092;-79
2023/05/29 00:58:15;;;;;;;5.13;2.92;;;16.90;60.00;;;16.40;48.46;101153.41;5005209;28;20487;-79
2023/05/29 01:00:42;;;;;;;10.38;3.25;;;16.90;60.10;;;16.33;48.60;101145.44;5009243;28;20045;-79
2023/05/29 01:03:10;;;;;;;9.73;3.22;;;16.80;60.40;;;16.28;48.72;101142.63;5008395;28;20141;-79
2023/05/29 01:05:38;;;;;;;6.72;2.65;;;16.80;60.60;;;16.25;48.91;101144.94;4994187;28;20045;-79
2023/05/29 01:08:05;;;;;;;8.18;3.33;;;16.70;60.60;;;16.25;48.81;101143.09;5005146;28;20133;-78
2023/05/29 01:10:34;;;;;;;8.43;3.30;;;16.70;60.60;;;16.23;49.08;101140.63;4989459;28;20073;-79
2023/05/29 01:13:10;;;;;;;10.25;3.17;;;16.70;61.10;;;16.15;49.48;101150.91;4990665;28;20061;-79
2023/05/29 01:15:47;;;;;;;8.75;3.65;;;16.60;61.40;;;16.06;49.30;101144.25;5006303;28;20046;-79
2023/05/29 01:18:31;;;;;;;8.55;3.05;;;16.60;61.60;;;16.09;49.14;101151.84;5009511;28;20056;-79
2023/05/29 01:21:08;;;;;;;8.23;3.42;;;16.60;61.30;;;16.10;49.34;101148.09;5007325;28;20045;-79
2023/05/29 01:24:14;;;;;;;9.73;3.40;;;16.60;61.60;;;15.95;49.60;101151.22;5010065;28;20569;-78
2023/05/29 01:26:52;;;;;;;11.73;3.60;;;16.50;62.00;;;15.92;49.57;101149.00;4993453;28;20045;-79
2023/05/29 01:29:24;;;;;;;17.17;3.88;;;16.40;61.90;;;15.92;49.52;101159.75;5007126;28;20057;-79
2023/05/29 01:31:52;;;;;;;13.18;3.83;;;16.40;61.80;;;15.87;49.69;101152.38;5007131;28;20112;-79
2023/05/29 01:34:20;;;;;;;8.50;3.42;;;16.20;61.90;;;15.88;49.71;101174.72;5007223;28;20050;-79
2023/05/29 01:36:47;;;;;;;11.63;3.47;;;16.30;62.10;;;15.76;49.67;101171.97;5005739;28;20125;-79
2023/05/29 01:39:15;;;;;;;8.85;3.17;;;16.20;62.00;;;15.66;49.85;101160.94;5004405;28;20069;-79
2023/05/29 01:41:45;;;;;;;10.75;3.15;;;16.10;62.10;;;15.61;49.75;101166.13;5003160;28;20042;-79
2023/05/29 01:44:14;;;;;;;9.85;3.17;;;16.10;62.40;;;15.59;49.61;101170.94;5024444;28;20057;-79
2023/05/29 01:46:42;;;;;;;11.00;3.60;;;16.00;62.00;;;15.58;49.61;101169.31;5002983;28;20034;-79
2023/05/29 01:49:11;;;;;;;11.10;3.85;;;16.00;62.20;;;15.54;49.70;101163.56;5006385;28;20138;-78
2023/05/29 01:51:40;;;;;;;11.30;3.30;;;16.00;62.30;;;15.56;49.62;101166.81;5008040;28;20122;-79
2023/05/29 01:54:08;;;;;;;9.75;3.42;;;16.00;62.40;;;15.51;49.80;101165.88;5008936;28;20073;-79
2023/05/29 01:56:37;;;;;;;11.45;3.50;;;15.90;62.60;;;15.46;50.16;101175.44;5004212;28;20099;-79
2023/05/29 01:59:06;;;;;;;12.55;3.50;;;15.90;62.80;;;15.42;50.23;101181.47;5007988;28;20045;-79
2023/05/29 02:01:34;;;;;;;12.80;3.53;;;15.90;63.20;;;15.42;50.24;101185.00;5006340;28;20070;-79
2023/05/29 02:04:01;;;;;;;12.25;3.20;;;15.90;63.20;;;15.42;50.12;101176.94;5007112;28;20691;-79
2023/05/29 02:06:28;;;;;;;11.43;3.78;;;15.90;63.00;;;15.43;50.55;101183.13;4999175;28;20080;-78
2023/05/29 02:08:55;;;;;;;11.38;3.33;;;15.90;63.40;;;15.40;50.51;101178.22;5003236;28;20069;-79
2023/05/29 02:11:22;;;;;;;14.60;3.67;;;15.80;63.40;;;15.37;50.34;101176.81;5007548;28;20046;-78
2023/05/29 02:13:51;;;;;;;14.98;3.80;;;15.90;63.30;;;15.34;50.33;101184.50;5008702;28;20053;-79
2023/05/29 02:16:20;;;;;;;13.88;3.58;;;15.80;63.20;;;15.27;50.45;101179.16;5006382;28;20080;-79
2023/05/29 02:18:48;;;;;;;13.63;3.47;;;15.70;63.20;;;15.24;50.15;101185.00;5006548;28;20384;-78
2023/05/29 02:21:16;;;;;;;12.20;3.65;;;15.70;63.10;;;15.23;50.33;101194.13;5006229;28;20053;-78
2023/05/29 02:23:44;;;;;;;18.33;3.67;;;15.70;63.20;;;15.24;49.95;101195.75;5007846;28;20053;-79
2023/05/29 02:26:13;;;;;;;17.60;3.88;;;15.70;63.00;;;15.16;50.04;101191.50;5001258;28;20077;-78
2023/05/29 02:28:40;;;;;;;15.65;4.05;;;15.60;63.10;;;15.10;50.28;101183.53;5006753;28;20034;-77
2023/05/29 02:31:08;;;;;;;14.45;3.95;;;15.50;63.30;;;15.06;50.41;101183.13;5007453;28;20125;-77
2023/05/29 02:33:38;;;;;;;14.68;3.33;;;15.50;63.50;;;14.94;50.72;101191.13;4998238;28;20538;-77
2023/05/29 02:36:11;;;;;;;16.45;3.45;;;15.40;63.60;;;14.90;50.59;101181.88;4992114;28;20503;-77
2023/05/29 02:38:39;;;;;;;16.67;3.95;;;15.30;63.60;;;14.86;50.72;101195.94;5019031;28;20069;-77
2023/05/29 02:41:07;;;;;;;20.40;4.13;;;15.30;63.80;;;14.83;50.88;101199.06;4990329;28;20116;-77
2023/05/29 02:43:36;;;;;;;17.13;4.47;;;15.20;63.80;;;14.86;50.78;101188.72;5058449;22;20129;-76
2023/05/29 02:46:03;;;;;;;23.70;4.15;;;15.30;63.90;;;14.83;50.74;101189.16;5060762;28;20082;-76
2023/05/29 02:48:30;;;;;;;18.35;3.88;;;15.20;63.80;;;14.84;50.74;101192.69;5054235;28;20040;-76
2023/05/29 02:50:59;;;;;;;15.98;3.33;;;15.20;63.80;;;14.83;50.83;101199.88;5066262;28;20068;-76
2023/05/29 02:53:26;;;;;;;13.23;3.80;;;15.20;63.90;;;14.81;50.70;101201.16;5055368;28;20049;-76
2023/05/29 02:55:54;;;;;;;14.10;3.55;;;15.20;63.80;;;14.82;50.95;101203.63;5025982;28;20072;-76
2023/05/29 02:58:22;;;;;;;18.00;3.63;;;15.20;64.10;;;14.81;50.62;101203.84;5037775;28;20045;-75
2023/05/29 03:00:50;;;;;;;14.63;3.67;;;15.20;63.80;;;14.79;50.98;101196.03;5028334;28;20947;-76
2023/05/29 03:03:17;;;;;;;15.68;3.95;;;15.20;64.20;;;14.77;50.93;101208.84;5029929;28;20887;-76
2023/05/29 03:05:45;;;;;;;16.38;3.55;;;15.20;64.00;;;14.74;51.07;101200.41;5047066;28;20116;-76
2023/05/29 03:08:14;;;;;;;17.70;3.53;;;15.10;64.40;;;14.74;51.15;101203.94;5030266;28;20053;-76
2023/05/29 03:10:44;;;;;;;16.15;3.80;;;15.20;64.30;;;14.74;51.25;101201.25;5023964;28;20077;-76
2023/05/29 03:13:12;;;;;;;14.38;3.33;;;15.20;64.40;;;14.69;51.26;101201.09;5026445;28;20141;-76
2023/05/29 03:15:44;;;;;;;14.05;3.97;;;15.10;64.50;;;14.68;51.26;101200.22;5029269;28;20124;-76
2023/05/29 03:18:11;;;;;;;19.00;4.07;;;15.10;64.40;;;14.69;51.25;101201.09;5029569;28;20080;-76
2023/05/29 03:20:39;;;;;;;15.60;3.78;;;15.10;64.50;;;14.65;51.54;101210.63;5028533;28;20051;-76
2023/05/29 03:23:06;;;;;;;12.55;3.72;;;15.10;64.80;;;14.61;51.52;101212.09;5030300;28;20053;-76
2023/05/29 03:25:37;;;;;;;21.88;4.30;;;15.10;64.90;;;14.57;51.84;101202.81;5033900;28;20056;-76
2023/05/29 03:28:04;;;;;;;17.95;4.05;;;15.00;65.10;;;14.55;51.74;101200.38;5034181;28;20048;-76
2023/05/29 03:30:32;;;;;;;19.48;4.25;;;15.00;65.20;;;14.53;51.91;101201.63;5035402;28;20037;-76
2023/05/29 03:33:03;;;;;;;16.75;3.72;;;15.00;65.10;;;14.54;51.76;101205.94;5026296;28;20073;-76
2023/05/29 03:35:42;;;;;;;16.67;3.83;;;15.00;65.40;;;14.49;51.92;101203.91;5027714;28;20049;-76
2023/05/29 03:38:11;;;;;;;14.57;3.33;;;15.00;65.40;;;14.41;52.20;101214.91;5033666;28;20053;-76
2023/05/29 03:40:39;;;;;;;15.23;3.58;;;14.90;65.60;;;14.39;52.38;101215.09;5028802;28;20143;-76
2023/05/29 03:43:08;;;;;;;18.83;4.07;;;14.90;65.80;;;14.29;52.67;101214.75;5033072;28;20162;-76
2023/05/29 03:45:35;;;;;;;15.18;3.63;;;14.80;66.20;;;14.25;52.91;101212.72;5032748;28;20562;-76
2023/05/29 03:48:02;;;;;;;14.80;3.65;;;14.70;66.40;;;14.25;52.96;101215.41;5013319;28;20065;-76
2023/05/29 03:50:30;;;;;;;15.68;4.00;;;14.70;66.70;;;14.18;53.14;101218.97;5019692;28;20055;-76
2023/05/29 03:52:58;;;;;;;15.60;3.47;;;14.60;66.90;;;14.17;53.22;101219.19;5033038;28;20053;-76
2023/05/29 03:55:27;;;;;;;17.83;3.90;;;14.60;66.90;;;14.13;53.33;101220.66;5032511;28;20462;-76
2023/05/29 03:57:56;;;;;;;18.55;3.78;;;14.60;66.80;;;14.09;53.38;101216.75;5025231;28;20211;-76
2023/05/29 04:00:23;;;;;;;18.83;4.00;;;14.60;67.20;;;14.07;53.49;101224.22;5018107;28;20045;-75
2023/05/29 04:02:52;;;;;;;20.25;4.40;;;14.50;67.30;;;14.08;53.47;101228.53;5032562;28;20056;-76
2023/05/29 04:05:20;;;;;;;19.35;3.67;;;14.50;67.40;;;14.07;53.69;101238.44;5050570;28;20043;-76
2023/05/29 04:07:47;;;;;;;16.95;4.03;;;14.50;67.70;;;14.03;53.78;101231.88;5032366;28;20472;-76
2023/05/29 04:10:16;;;;;;;19.67;3.95;;;14.50;67.90;;;14.03;53.93;101228.34;5030194;28;20059;-76
2023/05/29 04:12:43;;;;;;;18.30;4.55;;;14.50;67.80;;;14.04;53.72;101230.81;5032178;28;20140;-76
2023/05/29 04:15:12;;;;;;;16.95;4.07;;;14.50;67.90;;;13.97;53.84;101231.91;5031316;28;20405;-76
2023/05/29 04:17:39;;;;;;;21.58;3.92;;;14.50;68.00;;;13.99;53.92;101240.56;5018828;28;20053;-75
2023/05/29 04:20:08;;;;;;;17.38;4.40;;;14.50;68.10;;;13.90;54.41;101245.34;5038502;28;20033;-76
2023/05/29 04:22:36;;;;;;;17.08;3.97;;;14.40;68.40;;;13.87;54.60;101235.06;5024372;28;20118;-76
2023/05/29 04:25:04;;;;;;;17.73;4.13;;;14.40;68.50;;;13.89;54.39;101241.00;5050338;28;20044;-76
2023/05/29 04:27:32;;;;;;;21.45;4.03;;;14.40;68.50;;;13.88;54.37;101242.88;5012619;28;20080;-76
2023/05/29 04:30:02;;;;;;;18.33;3.88;;;14.40;68.70;;;13.92;54.54;101235.22;5030416;28;20053;-76
2023/05/29 04:32:36;;;;;;;18.67;3.65;;;14.40;68.60;;;13.95;54.38;101231.28;5023635;28;20102;-76
2023/05/29 04:35:03;;;;;;;19.75;4.50;;;14.40;68.50;;;14.05;54.45;101234.31;5031861;28;20052;-76
2023/05/29 04:37:37;;;;;;;20.63;4.33;;;14.50;68.50;;;14.17;54.38;101227.25;5013234;28;20056;-76
2023/05/29 04:40:08;;;;;;;19.35;3.60;;;14.60;68.30;;;14.24;53.93;101221.81;5013974;28;20045;-76
2023/05/29 04:42:36;;;;;;;17.07;3.60;;;14.70;68.20;;;14.35;53.85;101230.03;5024304;28;20044;-76
2023/05/29 04:45:05;;;;;;;16.15;3.17;;;14.80;68.10;;;14.46;53.64;101238.41;5030934;28;20396;-76
2023/05/29 04:47:36;;;;;;;18.27;3.55;;;14.90;67.90;;;14.56;53.41;101239.59;5034184;28;20067;-76
2023/05/29 04:50:04;;;;;;;21.88;4.35;;;15.00;67.50;;;14.69;53.11;101241.34;5033394;28;20049;-76
2023/05/29 04:52:32;;;;;;;14.50;3.13;;;15.20;67.10;;;14.83;52.98;101252.78;5052351;28;20069;-76
2023/05/29 04:54:59;;;;;;;17.20;3.63;;;15.30;66.90;;;14.93;52.66;101253.09;5034516;28;20045;-76
2023/05/29 04:57:27;;;;;;;20.58;4.40;;;15.40;66.50;;;15.05;52.54;101258.59;5032972;28;20079;-76
2023/05/29 04:59:54;;;;;;;19.98;4.28;;;15.70;66.40;;;15.13;51.98;101266.38;5023563;28;20053;-78
2023/05/29 05:02:21;;;;;;;14.13;3.72;;;15.60;65.50;;;15.17;51.57;101265.69;5047986;28;20045;-77
2023/05/29 05:04:51;;;;;;;15.93;3.60;;;15.70;65.20;;;15.21;51.99;101252.63;5020912;28;20051;-78
2023/05/29 05:07:18;;;;;;;17.52;3.97;;;15.70;65.40;;;15.33;51.54;101261.63;5018687;28;20048;-77
2023/05/29 05:09:45;;;;;;;17.30;4.10;;;15.80;64.90;;;15.45;51.59;101259.00;5032881;28;20045;-77
2023/05/29 05:12:20;;;;;;;15.23;3.35;;;15.90;64.80;;;15.53;51.46;101258.72;5029185;28;20045;-77
2023/05/29 05:14:48;;;;;;;13.27;3.35;;;16.00;64.70;;;15.63;50.89;101268.94;5022849;28;20045;-78
2023/05/29 05:17:15;;;;;;;19.48;3.60;;;16.10;64.20;;;15.72;50.69;101267.63;5031593;28;20424;-77
2023/05/29 05:19:43;;;;;;;18.85;4.22;;;16.20;63.80;;;15.80;50.31;101253.84;5032239;28;20083;-77
2023/05/29 05:22:11;;;;;;;19.65;4.30;;;16.30;63.40;;;15.87;50.48;101270.75;5028856;28;20081;-77
2023/05/29 05:24:39;;;;;;;11.82;3.33;;;16.40;63.60;;;15.95;49.96;101266.91;5031914;28;20036;-78
2023/05/29 05:27:06;;;;;;;12.88;3.15;;;16.40;62.80;;;15.99;49.43;101261.88;5032572;28;20073;-77
2023/05/29 05:29:33;;;;;;;16.90;3.67;;;16.50;62.30;;;16.01;49.80;101265.19;5035987;28;20492;-78
2023/05/29 05:32:00;;;;;;;21.83;3.65;;;16.50;62.50;;;16.11;49.40;101254.69;5029799;28;20053;-78
2023/05/29 05:34:27;;;;;;;16.35;3.75;;;16.60;62.20;;;16.20;49.35;101253.31;5044369;28;20041;-77
2023/05/29 05:36:55;;;;;;;14.93;3.58;;;16.70;62.20;;;16.29;48.92;101253.81;5029415;28;20049;-78
2023/05/29 05:39:25;;;;;;;19.25;3.83;;;16.70;61.60;;;16.33;48.99;101261.19;5048574;28;20049;-78
2023/05/29 05:41:52;;;;;;;18.15;3.90;;;16.90;61.60;;;16.44;49.14;101256.88;5028152;28;20135;-77
2023/05/29 05:44:42;;;;;;;16.23;3.75;;;16.90;61.80;;;16.53;48.36;101260.88;5012148;28;20060;-78
2023/05/29 05:47:13;;;;;;;14.10;3.20;;;17.00;60.80;;;16.55;48.09;101255.28;5028088;28;20061;-78
2023/05/29 05:49:40;;;;;;;16.73;3.58;;;17.00;60.30;;;16.58;47.54;101270.97;5046251;28;20107;-76
2023/05/29 05:52:08;;;;;;;14.95;3.67;;;17.10;59.80;;;16.59;47.57;101273.44;5045230;28;20099;-77
2023/05/29 05:54:37;;;;;;;12.90;3.85;;;17.10;59.90;;;16.65;47.78;101255.53;5031392;28;20144;-77
2023/05/29 05:57:04;;;;;;;17.58;3.70;;;17.20;59.80;;;16.73;47.65;101252.53;5031045;28;20055;-77
2023/05/29 05:59:33;;;;;;;13.00;3.63;;;17.20;59.60;;;16.79;47.40;101246.22;5031384;28;20123;-77
2023/05/29 06:02:01;;;;;;;22.80;3.60;;;17.30;59.50;;;16.83;47.32;101252.75;5027490;28;20132;-77
2023/05/29 06:04:29;;;;;;;12.88;3.28;;;17.30;59.30;;;16.80;47.06;101242.47;5030693;28;20826;-77
2023/05/29 06:06:57;;;;;;;19.63;3.63;;;17.30;59.00;;;16.89;47.31;101249.16;5031363;28;20680;-76
2023/05/29 06:09:24;;;;;;;15.65;3.72;;;17.40;59.20;;;16.99;47.53;101245.88;5021220;28;20041;-77
2023/05/29 06:11:53;;;;;;;11.48;3.17;;;17.50;59.50;;;16.99;46.38;101252.09;5044808;28;20091;-77
2023/05/29 06:14:21;;;;;;;16.60;3.22;;;17.50;58.10;;;17.01;46.08;101253.72;5031251;28;20044;-77
2023/05/29 06:16:48;;;;;;;16.17;3.58;;;17.50;57.60;;;17.07;46.42;101255.47;5043543;28;20056;-77
2023/05/29 06:19:15;;;;;;;13.40;3.10;;;17.60;58.00;;;17.12;46.04;101255.59;5031391;28;20112;-77
2023/05/29 06:21:54;;;;;;;16.40;3.90;;;17.60;57.50;;;17.17;46.43;101258.38;5030076;28;20049;-77
2023/05/29 06:24:21;;;;;;;12.50;3.53;;;17.70;58.20;;;17.22;45.99;101269.28;5045430;28;20049;-77
2023/05/29 06:26:49;;;;;;;17.33;3.40;;;17.70;57.50;;;17.21;45.55;101289.22;5046713;28;20131;-77
2023/05/29 06:29:18;;;;;;;15.52;3.63;;;17.70;56.70;;;17.18;45.60;101271.66;5055825;28;20409;-77
2023/05/29 06:31:45;;;;;;;16.38;3.35;;;17.70;56.80;;;17.15;45.44;101272.09;5047206;28;20048;-77
2023/05/29 06:34:12;;;;;;;16.45;3.92;;;17.70;56.70;;;17.09;45.19;101267.66;5036013;28;20101;-77
2023/05/29 06:36:41;;;;;;;14.73;3.67;;;17.70;56.30;;;17.12;45.39;101271.75;5048328;28;20145;-77
2023/05/29 06:39:08;;;;;;;16.50;4.18;;;17.70;56.50;;;17.08;45.42;101271.44;5037752;28;20667;-77
2023/05/29 06:41:36;;;;;;;15.77;3.72;;;17.70;56.70;;;17.01;45.71;101267.19;5024407;28;20041;-77
2023/05/29 06:44:03;;;;;;;13.63;3.42;;;17.60;56.70;;;17.09;46.38;101269.53;5047712;28;20098;-77
2023/05/29 06:46:31;;;;;;;17.58;3.80;;;17.70;57.70;;;17.18;45.63;101270.84;5029878;28;20076;-77
2023/05/29 06:48:59;;;;;;;19.00;3.75;;;17.70;56.90;;;17.17;45.32;101266.47;5027807;28;20056;-77
2023/05/29 06:51:26;;;;;;;16.13;3.55;;;17.70;56.20;;;17.15;45.94;101272.09;5037118;28;20123;-77
2023/05/29 06:54:14;;;;;;;15.20;3.42;;;17.70;57.10;;;17.16;45.33;101259.44;5058065;28;20057;-77
2023/05/29 06:56:41;;;;;;;19.70;4.07;;;17.70;56.40;;;17.17;45.65;101255.69;5030403;28;20147;-77
2023/05/29 06:59:09;;;;;;;13.82;3.90;;;17.70;56.70;;;17.18;45.41;101257.34;5028958;28;20136;-79
2023/05/29 07:01:38;;;;;;;15.32;3.83;;;17.80;56.50;;;17.19;45.77;101264.38;5028070;28;20103;-77
2023/05/29 07:04:06;;;;;;;15.23;4.03;;;17.70;56.90;;;17.18;46.00;101260.88;5029669;28;20048;-77
2023/05/29 07:06:35;;;;;;;14.85;3.33;;;17.70;57.20;;;17.22;45.95;101255.81;5024726;28;20048;-77
2023/05/29 07:09:02;;;;;;;16.77;3.63;;;17.70;57.10;;;17.19;45.87;101259.00;5030120;28;20049;-77
2023/05/29 07:11:30;;;;;;;19.90;4.25;;;17.70;56.90;;;17.22;46.13;101269.28;5047464;28;20040;-78
2023/05/29 07:13:57;;;;;;;17.58;3.60;;;17.80;57.20;;;17.25;46.04;101250.75;5022631;28;20140;-77
2023/05/29 07:16:27;;;;;;;13.10;3.60;;;17.80;57.10;;;17.30;46.03;101278.91;5020466;28;20073;-77
2023/05/29 07:19:00;;;;;;;13.48;3.30;;;17.80;57.20;;;17.37;45.97;101264.25;5027135;28;20049;-78
2023/05/29 07:21:31;;;;;;;13.63;3.83;;;17.90;57.10;;;17.44;45.77;101278.41;5047308;28;20493;-77
2023/05/29 07:23:58;;;;;;;14.55;3.42;;;17.90;56.90;;;17.45;46.25;101271.97;5029934;28;20045;-78
2023/05/29 07:26:26;;;;;;;17.08;3.80;;;18.00;57.30;;;17.54;45.94;101269.72;5029786;28;20064;-78
2023/05/29 07:28:53;;;;;;;16.05;3.13;;;18.10;57.10;;;17.61;45.47;101272.28;5032098;28;20061;-77
2023/05/29 07:31:21;;;;;;;16.35;3.75;;;18.10;56.50;;;17.57;44.93;101280.03;5035246;28;20056;-77
2023/05/29 07:33:50;;;;;;;12.13;3.55;;;18.10;56.40;;;17.61;45.90;101275.78;5029713;28;20071;-78
2023/05/29 07:36:19;;;;;;;13.25;3.40;;;18.10;57.00;;;17.69;45.61;101288.09;5029505;28;20055;-77
2023/05/29 07:38:48;;;;;;;17.75;3.38;;;18.20;56.70;;;17.77;45.39;101287.78;5030172;28;20052;-77
2023/05/29 07:41:17;;;;;;;17.27;3.45;;;18.30;56.80;;;17.77;45.03;101305.84;5028699;28;20087;-78
2023/05/29 07:43:52;;;;;;;16.27;3.47;;;18.30;56.30;;;17.85;45.25;101294.66;5030021;28;20056;-77
2023/05/29 07:46:20;;;;;;;18.00;3.50;;;18.40;56.40;;;17.90;45.18;101297.47;5028624;28;20433;-78
2023/05/29 07:48:50;;;;;;;14.18;3.20;;;18.40;56.50;;;17.85;44.32;101290.06;5029613;28;20135;-78
2023/05/29 07:51:20;;;;;;;16.05;3.35;;;18.40;55.60;;;17.85;44.74;101291.97;5026372;28;20756;-78
2023/05/29 07:53:49;;;;;;;14.48;3.50;;;18.40;55.90;;;17.89;44.73;101285.84;5025921;28;21151;-78
2023/05/29 07:56:17;;;;;;;14.13;3.60;;;18.50;55.90;;;17.87;44.25;101306.06;5028322;28;20048;-78
2023/05/29 07:58:46;;;;;;;14.23;2.95;;;18.50;55.40;;;17.83;44.83;101291.38;5028293;28;20052;-78
2023/05/29 08:01:13;;;;;;;13.23;3.35;;;18.40;56.10;;;17.81;44.72;101297.00;5024651;28;20127;-77
2023/05/29 08:03:43;;;;;;;16.30;3.25;;;18.40;55.80;;;17.85;45.06;101303.56;5024048;28;20044;-77
2023/05/29 08:06:43;;;;;;;12.70;3.30;;;18.40;56.30;;;17.87;45.14;101306.06;5037341;28;20049;-78
2023/05/29 08:09:11;;;;;;;12.27;3.25;;;18.40;56.30;;;17.96;45.32;101302.75;5026056;28;20480;-77
2023/05/29 08:11:39;;;;;;;14.90;3.53;;;18.50;56.70;;;18.05;44.80;101305.03;5030474;28;20571;-77
2023/05/29 08:14:07;;;;;;;11.95;3.38;;;18.60;56.00;;;18.12;45.93;101311.13;5029785;28;20047;-78
2023/05/29 08:16:34;;;;;;;15.48;3.85;;;18.60;57.10;;;18.16;44.86;101305.00;5030738;28;20102;-78
2023/05/29 08:19:02;;;;;;;14.10;3.38;;;18.70;55.90;;;18.22;44.72;101309.44;5047610;28;20044;-77
2023/05/29 08:21:29;;;;;;;11.85;3.50;;;18.80;55.80;;;18.23;44.41;101316.47;5043766;28;20123;-77
2023/05/29 08:23:58;;;;;;;15.50;3.72;;;18.80;55.50;;;18.25;44.00;101310.81;5048928;28;20049;-77
2023/05/29 08:26:25;;;;;;;13.70;3.72;;;18.80;55.10;;;18.26;44.67;101301.69;5048906;28;20072;-78
2023/05/29 08:28:52;;;;;;;12.90;3.22;;;18.90;55.90;;;18.37;45.00;101303.50;5048925;28;20135;-78
2023/05/29 08:31:20;;;;;;;14.88;3.70;;;18.90;56.20;;;18.38;44.55;101305.13;5044689;28;20048;-78
2023/05/29 08:33:47;;;;;;;12.32;3.40;;;19.00;55.80;;;18.44;44.58;101312.25;5049112;28;20452;-78
2023/05/29 08:36:14;;;;;;;16.10;3.80;;;19.00;55.70;;;18.48;44.94;101318.81;5045603;28;20120;-78
2023/05/29 08:38:41;;;;;;;14.13;3.50;;;19.10;56.30;;;18.55;44.67;101309.78;5047339;28;20075;-77
2023/05/29 08:41:18;;;;;;;13.50;3.13;;;19.10;55.70;;;18.59;45.56;101310.88;5043909;28;20108;-78
2023/05/29 08:43:47;;;;;;;14.25;3.60;;;19.10;56.70;;;18.48;43.87;101313.41;5046436;28;20145;-77
2023/05/29 08:46:15;;;;;;;15.75;3.28;;;19.10;54.90;;;18.50;44.61;101308.59;5042679;28;20041;-78
2023/05/29 08:48:49;;;;;;;16.45;3.22;;;19.10;55.80;;;18.57;44.36;101318.44;5049642;28;20563;-77
2023/05/29 08:51:20;;;;;;;13.02;3.83;;;19.10;55.30;;;18.62;45.03;101308.53;5046155;28;20042;-77
2023/05/29 08:53:48;;;;;;;;;;;19.20;56.30;;;18.71;45.21;101320.63;5045285;28;20517;-78
2023/05/29 08:56:16;;;;;;;11.63;3.47;;;19.20;56.40;;;18.70;43.90;101328.97;5045801;28;20016;-78
2023/05/29 08:58:45;;;;;;;12.25;3.95;;;19.20;54.80;;;18.57;44.54;101321.13;5045808;28;20040;-78
2023/05/29 09:01:13;;;;;;;14.50;3.95;;;19.10;55.90;;;18.62;44.45;101310.41;5046066;28;20123;-77
2023/05/29 09:03:41;;;;;;;14.27;3.78;;;19.20;55.30;;;18.57;43.64;101332.75;5048349;28;20044;-78
2023/05/29 09:06:09;;;;;;;9.52;3.22;;;19.10;54.60;;;18.55;43.73;101317.88;5042756;28;20037;-77
2023/05/29 09:08:36;;;;;;;14.38;3.35;;;19.20;54.70;;;18.55;44.11;101325.97;5042950;28;20044;-77
2023/05/29 09:11:04;;;;;;;13.73;3.63;;;19.10;55.20;;;18.57;44.27;101331.94;5041470;28;20037;-77
2023/05/29 09:13:32;;;;;;;14.23;3.40;;;19.20;55.40;;;18.60;43.71;101324.19;5046094;28;20045;-77
2023/05/29 09:16:01;;;;;;;12.90;3.60;;;19.10;54.70;;;18.57;44.27;101326.53;5045182;28;20080;-77
2023/05/29 09:18:31;;;;;;;14.57;3.42;;;19.10;55.30;;;18.57;44.07;101331.94;5045842;28;20047;-77
2023/05/29 09:20:59;;;;;;;11.93;3.15;;;19.20;55.10;;;18.57;44.57;101334.66;5047137;28;20048;-77
2023/05/29 09:23:27;;;;;;;14.07;4.00;;;19.10;55.50;;;18.58;43.93;101326.28;5048255;28;20489;-77
2023/05/29 09:25:55;;;;;;;15.95;3.83;;;19.20;54.80;;;18.55;44.07;101323.28;5057684;28;20045;-76
2023/05/29 09:28:25;;;;;;;11.65;3.30;;;19.10;54.90;;;18.55;44.47;101339.47;5031798;28;20124;-76
2023/05/29 09:30:54;;;;;;;14.67;3.80;;;19.10;55.40;;;18.59;45.83;101343.31;5046095;28;20041;-75
2023/05/29 09:33:21;;;;;;;17.13;4.05;;;19.10;56.90;;;18.62;45.20;101340.13;5044228;28;20826;-76
2023/05/29 09:35:50;;;;;;;15.10;3.92;;;19.20;56.10;;;18.65;44.61;101334.25;5048912;28;20539;-76
2023/05/29 09:38:20;;;;;;;16.88;3.50;;;19.20;55.90;;;18.65;44.84;101340.47;5040611;28;20052;-76
2023/05/29 09:40:47;;;;;;;16.00;3.83;;;19.20;56.00;;;18.70;44.57;101337.09;5046272;28;20045;-77
2023/05/29 09:43:17;;;;;;;14.27;3.70;;;19.30;55.40;;;18.75;44.39;101343.38;5041454;28;20053;-77
2023/05/29 09:45:46;;;;;;;11.85;3.40;;;19.30;55.50;;;18.77;44.23;101345.84;5048161;28;20045;-77
2023/05/29 09:48:16;;;;;;;12.15;3.70;;;19.30;55.10;;;18.74;44.15;101341.75;5048346;28;20098;-77
2023/05/29 09:50:45;;;;;;;15.25;3.40;;;19.30;54.90;;;18.70;44.00;101343.31;5046190;28;20037;-77
2023/05/29 09:53:24;;;;;;;15.18;3.75;;;19.30;54.90;;;18.74;44.64;101332.84;5041232;28;20041;-82
2023/05/29 09:55:52;;;;;;;14.68;3.30;;;19.30;55.50;;;18.72;43.80;101332.25;5043786;28;20041;-77
2023/05/29 09:58:20;;;;;;;12.13;3.65;;;19.30;54.40;;;18.75;43.90;101339.88;5048546;28;20041;-77
2023/05/29 10:00:49;;;;;;;13.60;3.80;;;19.40;54.70;;;18.74;44.06;101335.53;5044342;28;20041;-77
2023/05/29 10:03:19;;;;;;;18.38;3.95;;;19.30;54.90;;;18.78;43.52;101333.97;5044999;28;20143;-77
2023/05/29 10:05:50;;;;;;;11.75;3.17;;;19.40;54.50;;;18.78;44.18;101344.75;5036375;28;20053;-77
2023/05/29 10:08:20;;;;;;;15.10;3.83;;;19.30;54.80;;;18.76;44.02;101345.03;5044744;28;20064;-76
2023/05/29 10:11:00;;;;;;;10.68;3.70;;;19.30;54.70;;;18.72;42.86;101340.34;5046599;28;20387;-76
2023/05/29 10:13:32;;;;;;;11.88;3.53;;;19.30;53.80;;;18.71;43.57;101334.13;5046851;28;20561;-76
2023/05/29 10:16:02;;;;;;;12.90;3.78;;;19.30;54.50;;;18.75;43.99;101332.56;5046873;28;20124;-76